sensor_id;sensor_type;location;lat;lon;timestamp;temperature;humidity
5576;DHT22;2810;50.134;8.626;2023-03-26T00:02:20;8.90;99.90
5576;DHT22;2810;50.134;8.626;2023-03-26T00:04:47;8.90;99.90
5576;DHT22;2810;50.134;8.626;2023-03-26T00:07:14;8.90;99.90
5576;DHT22;2810;50.134;8.626;2023-03-26T00:09:40;8.90;99.90
5576;DHT22;2810;50.134;8.626;2023-03-26T00:12:05;8.90;99.90
5576;DHT22;2810;50.134;8.626;2023-03-26T00:14:31;8.90;99.90
5576;DHT22;2810;50.134;8.626;2023-03-26T00:16:56;8.90;99.90
5576;DHT22;2810;50.134;8.626;2023-03-26T00:19:22;9.00;99.90
5576;DHT22;2810;50.134;8.626;2023-03-26T00:21:47;9.00;99.90
5576;DHT22;2810;50.134;8.626;2023-03-26T00:24:13;9.00;99.90
5576;DHT22;2810;50.134;8.626;2023-03-26T00:26:42;9.00;99.90
5576;DHT22;2810;50.134;8.626;2023-03-26T00:29:07;9.00;99.90
5576;DHT22;2810;50.134;8.626;2023-03-26T00:31:34;9.00;99.90
5576;DHT22;2810;50.134;8.626;2023-03-26T00:33:59;9.00;99.90
5576;DHT22;2810;50.134;8.626;2023-03-26T00:36:27;9.00;99.90
5576;DHT22;2810;50.134;8.626;2023-03-26T00:38:53;9.00;99.90
5576;DHT22;2810;50.134;8.626;2023-03-26T00:41:19;9.00;99.90
5576;DHT22;2810;50.134;8.626;2023-03-26T00:43:50;9.50;99.90
5576;DHT22;2810;50.134;8.626;2023-03-26T00:46:16;9.00;99.90
5576;DHT22;2810;50.134;8.626;2023-03-26T00:48:42;9.00;99.90
5576;DHT22;2810;50.134;8.626;2023-03-26T00:51:10;9.00;99.90
5576;DHT22;2810;50.134;8.626;2023-03-26T00:53:37;8.90;99.90
5576;DHT22;2810;50.134;8.626;2023-03-26T00:56:03;8.90;99.90
5576;DHT22;2810;50.134;8.626;2023-03-26T00:58:29;8.90;99.90
5576;DHT22;2810;50.134;8.626;2023-03-26T01:00:56;8.90;99.90
5576;DHT22;2810;50.134;8.626;2023-03-26T01:03:21;8.90;99.90
5576;DHT22;2810;50.134;8.626;2023-03-26T01:05:56;8.90;99.90
5576;DHT22;2810;50.134;8.626;2023-03-26T01:10:55;8.80;99.90
5576;DHT22;2810;50.134;8.626;2023-03-26T01:13:27;8.80;99.90
5576;DHT22;2810;50.134;8.626;2023-03-26T01:15:53;8.70;99.90
5576;DHT22;2810;50.134;8.626;2023-03-26T01:18:22;8.70;99.90
5576;DHT22;2810;50.134;8.626;2023-03-26T01:20:51;8.70;99.90
5576;DHT22;2810;50.134;8.626;2023-03-26T01:23:23;8.70;99.90
5576;DHT22;2810;50.134;8.626;2023-03-26T01:25:53;8.60;99.90
5576;DHT22;2810;50.134;8.626;2023-03-26T01:28:22;8.60;99.90
5576;DHT22;2810;50.134;8.626;2023-03-26T01:30:51;8.60;99.90
5576;DHT22;2810;50.134;8.626;2023-03-26T01:33:27;8.60;99.90
5576;DHT22;2810;50.134;8.626;2023-03-26T01:35:59;8.50;99.90
5576;DHT22;2810;50.134;8.626;2023-03-26T01:41:07;8.50;99.90
5576;DHT22;2810;50.134;8.626;2023-03-26T01:46:03;8.50;99.90
5576;DHT22;2810;50.134;8.626;2023-03-26T01:48:33;8.50;99.90
5576;DHT22;2810;50.134;8.626;2023-03-26T01:51:00;8.50;99.90
5576;DHT22;2810;50.134;8.626;2023-03-26T01:53:26;8.90;99.90
5576;DHT22;2810;50.134;8.626;2023-03-26T01:58:32;8.50;99.90
5576;DHT22;2810;50.134;8.626;2023-03-26T02:01:05;8.50;99.90
5576;DHT22;2810;50.134;8.626;2023-03-26T02:03:45;8.50;99.90
5576;DHT22;2810;50.134;8.626;2023-03-26T02:06:18;8.60;99.90
5576;DHT22;2810;50.134;8.626;2023-03-26T02:08:51;8.50;99.90
5576;DHT22;2810;50.134;8.626;2023-03-26T02:11:18;8.60;99.90
5576;DHT22;2810;50.134;8.626;2023-03-26T02:13:44;8.50;99.90
5576;DHT22;2810;50.134;8.626;2023-03-26T02:16:11;8.50;99.90
5576;DHT22;2810;50.134;8.626;2023-03-26T02:18:41;8.50;99.90
5576;DHT22;2810;50.134;8.626;2023-03-26T02:23:36;8.50;99.90
5576;DHT22;2810;50.134;8.626;2023-03-26T02:26:09;8.50;99.90
5576;DHT22;2810;50.134;8.626;2023-03-26T02:28:35;8.50;99.90
5576;DHT22;2810;50.134;8.626;2023-03-26T02:31:00;8.50;99.90
5576;DHT22;2810;50.134;8.626;2023-03-26T02:33:28;8.50;99.90
5576;DHT22;2810;50.134;8.626;2023-03-26T02:35:54;8.50;99.90
5576;DHT22;2810;50.134;8.626;2023-03-26T02:38:24;9.00;99.90
5576;DHT22;2810;50.134;8.626;2023-03-26T02:40:51;8.40;99.90
5576;DHT22;2810;50.134;8.626;2023-03-26T02:43:17;8.40;99.90
5576;DHT22;2810;50.134;8.626;2023-03-26T02:45:43;8.70;99.90
5576;DHT22;2810;50.134;8.626;2023-03-26T02:48:08;8.30;99.90
5576;DHT22;2810;50.134;8.626;2023-03-26T02:50:33;8.30;99.90
5576;DHT22;2810;50.134;8.626;2023-03-26T02:53:01;8.30;99.90
5576;DHT22;2810;50.134;8.626;2023-03-26T02:55:26;8.30;99.90
5576;DHT22;2810;50.134;8.626;2023-03-26T02:57:52;8.30;99.90
5576;DHT22;2810;50.134;8.626;2023-03-26T03:00:17;8.40;99.90
5576;DHT22;2810;50.134;8.626;2023-03-26T03:02:46;8.30;99.90
5576;DHT22;2810;50.134;8.626;2023-03-26T03:05:12;8.60;99.90
5576;DHT22;2810;50.134;8.626;2023-03-26T03:07:38;8.30;99.90
5576;DHT22;2810;50.134;8.626;2023-03-26T03:10:05;8.30;99.90
5576;DHT22;2810;50.134;8.626;2023-03-26T03:12:33;8.30;99.90
5576;DHT22;2810;50.134;8.626;2023-03-26T03:14:58;8.30;99.90
5576;DHT22;2810;50.134;8.626;2023-03-26T03:17:24;8.30;99.90
5576;DHT22;2810;50.134;8.626;2023-03-26T03:19:49;8.30;99.90
5576;DHT22;2810;50.134;8.626;2023-03-26T03:22:15;8.30;99.90
5576;DHT22;2810;50.134;8.626;2023-03-26T03:24:40;8.30;99.90
5576;DHT22;2810;50.134;8.626;2023-03-26T03:27:08;8.30;99.90
5576;DHT22;2810;50.134;8.626;2023-03-26T03:29:34;8.30;99.90
5576;DHT22;2810;50.134;8.626;2023-03-26T03:31:59;8.30;99.90
5576;DHT22;2810;50.134;8.626;2023-03-26T03:34:25;8.30;99.90
5576;DHT22;2810;50.134;8.626;2023-03-26T03:36:51;8.30;99.90
5576;DHT22;2810;50.134;8.626;2023-03-26T03:39:16;8.30;99.90
5576;DHT22;2810;50.134;8.626;2023-03-26T03:41:41;8.30;99.90
5576;DHT22;2810;50.134;8.626;2023-03-26T03:44:07;8.20;99.90
5576;DHT22;2810;50.134;8.626;2023-03-26T03:46:32;8.80;99.90
5576;DHT22;2810;50.134;8.626;2023-03-26T03:48:58;8.30;99.90
5576;DHT22;2810;50.134;8.626;2023-03-26T03:51:23;8.30;99.90
5576;DHT22;2810;50.134;8.626;2023-03-26T03:53:49;8.30;99.90
5576;DHT22;2810;50.134;8.626;2023-03-26T03:56:15;8.30;99.90
5576;DHT22;2810;50.134;8.626;2023-03-26T03:58:43;8.30;99.90
5576;DHT22;2810;50.134;8.626;2023-03-26T04:01:10;8.20;99.90
5576;DHT22;2810;50.134;8.626;2023-03-26T04:03:37;8.20;99.90
5576;DHT22;2810;50.134;8.626;2023-03-26T04:06:04;8.20;99.90
5576;DHT22;2810;50.134;8.626;2023-03-26T04:08:31;8.20;99.90
5576;DHT22;2810;50.134;8.626;2023-03-26T04:10:56;8.20;99.90
5576;DHT22;2810;50.134;8.626;2023-03-26T04:13:22;8.20;99.90
5576;DHT22;2810;50.134;8.626;2023-03-26T04:15:47;8.20;99.90
5576;DHT22;2810;50.134;8.626;2023-03-26T04:18:13;8.20;99.90
5576;DHT22;2810;50.134;8.626;2023-03-26T04:20:39;8.20;99.90
5576;DHT22;2810;50.134;8.626;2023-03-26T04:23:06;8.20;99.90
5576;DHT22;2810;50.134;8.626;2023-03-26T04:25:33;8.20;99.90
5576;DHT22;2810;50.134;8.626;2023-03-26T04:28:04;8.20;99.90
5576;DHT22;2810;50.134;8.626;2023-03-26T04:30:31;8.20;99.90
5576;DHT22;2810;50.134;8.626;2023-03-26T04:32:58;8.20;99.90
5576;DHT22;2810;50.134;8.626;2023-03-26T04:35:25;8.30;99.90
5576;DHT22;2810;50.134;8.626;2023-03-26T04:37:50;8.20;99.90
5576;DHT22;2810;50.134;8.626;2023-03-26T04:40:18;8.10;99.90
5576;DHT22;2810;50.134;8.626;2023-03-26T04:42:44;8.10;99.90
5576;DHT22;2810;50.134;8.626;2023-03-26T04:45:13;8.10;99.90
5576;DHT22;2810;50.134;8.626;2023-03-26T04:47:39;8.10;99.90
5576;DHT22;2810;50.134;8.626;2023-03-26T04:50:05;8.10;99.90
5576;DHT22;2810;50.134;8.626;2023-03-26T04:52:31;7.70;99.90
5576;DHT22;2810;50.134;8.626;2023-03-26T04:54:56;8.00;99.90
5576;DHT22;2810;50.134;8.626;2023-03-26T04:57:23;8.10;99.90
5576;DHT22;2810;50.134;8.626;2023-03-26T04:59:51;8.00;99.90
5576;DHT22;2810;50.134;8.626;2023-03-26T05:02:16;8.10;99.90
5576;DHT22;2810;50.134;8.626;2023-03-26T05:04:42;8.10;99.90
5576;DHT22;2810;50.134;8.626;2023-03-26T05:07:10;8.10;99.90
5576;DHT22;2810;50.134;8.626;2023-03-26T05:09:36;8.00;99.90
5576;DHT22;2810;50.134;8.626;2023-03-26T05:12:01;8.00;99.90
5576;DHT22;2810;50.134;8.626;2023-03-26T05:14:27;8.00;99.90
5576;DHT22;2810;50.134;8.626;2023-03-26T05:16:52;8.00;99.90
5576;DHT22;2810;50.134;8.626;2023-03-26T05:19:18;8.00;99.90
5576;DHT22;2810;50.134;8.626;2023-03-26T05:21:43;8.00;99.90
5576;DHT22;2810;50.134;8.626;2023-03-26T05:24:10;8.40;99.90
5576;DHT22;2810;50.134;8.626;2023-03-26T05:26:35;8.00;99.90
5576;DHT22;2810;50.134;8.626;2023-03-26T05:29:01;8.10;99.90
5576;DHT22;2810;50.134;8.626;2023-03-26T05:31:27;8.20;99.90
5576;DHT22;2810;50.134;8.626;2023-03-26T05:33:55;8.20;99.90
5576;DHT22;2810;50.134;8.626;2023-03-26T05:36:21;8.20;99.90
5576;DHT22;2810;50.134;8.626;2023-03-26T05:38:46;8.20;99.90
5576;DHT22;2810;50.134;8.626;2023-03-26T05:41:14;8.20;99.90
5576;DHT22;2810;50.134;8.626;2023-03-26T05:43:39;8.20;99.90
5576;DHT22;2810;50.134;8.626;2023-03-26T05:46:05;8.20;99.90
5576;DHT22;2810;50.134;8.626;2023-03-26T05:48:31;8.20;99.90
5576;DHT22;2810;50.134;8.626;2023-03-26T05:50:57;8.20;99.90
5576;DHT22;2810;50.134;8.626;2023-03-26T05:53:23;8.20;99.90
5576;DHT22;2810;50.134;8.626;2023-03-26T05:55:48;8.20;99.90
5576;DHT22;2810;50.134;8.626;2023-03-26T05:58:23;8.20;99.90
5576;DHT22;2810;50.134;8.626;2023-03-26T06:00:54;8.20;99.90
5576;DHT22;2810;50.134;8.626;2023-03-26T06:03:22;8.20;99.90
5576;DHT22;2810;50.134;8.626;2023-03-26T06:05:48;8.20;99.90
5576;DHT22;2810;50.134;8.626;2023-03-26T06:08:14;8.10;99.90
5576;DHT22;2810;50.134;8.626;2023-03-26T06:10:40;8.10;99.90
5576;DHT22;2810;50.134;8.626;2023-03-26T06:13:05;8.10;99.90
5576;DHT22;2810;50.134;8.626;2023-03-26T06:15:31;8.20;99.90
5576;DHT22;2810;50.134;8.626;2023-03-26T06:17:56;8.20;99.90
5576;DHT22;2810;50.134;8.626;2023-03-26T06:20:21;8.20;99.90
5576;DHT22;2810;50.134;8.626;2023-03-26T06:22:47;8.20;99.90
5576;DHT22;2810;50.134;8.626;2023-03-26T06:25:12;8.30;99.90
5576;DHT22;2810;50.134;8.626;2023-03-26T06:27:38;8.30;99.90
5576;DHT22;2810;50.134;8.626;2023-03-26T06:30:03;8.40;99.90
5576;DHT22;2810;50.134;8.626;2023-03-26T06:32:29;8.40;99.90
5576;DHT22;2810;50.134;8.626;2023-03-26T06:34:54;8.30;99.90
5576;DHT22;2810;50.134;8.626;2023-03-26T06:37:20;8.80;99.90
5576;DHT22;2810;50.134;8.626;2023-03-26T06:39:45;8.40;99.90
5576;DHT22;2810;50.134;8.626;2023-03-26T06:42:11;8.50;99.90
5576;DHT22;2810;50.134;8.626;2023-03-26T06:44:36;8.50;99.90
5576;DHT22;2810;50.134;8.626;2023-03-26T06:47:02;8.50;99.90
5576;DHT22;2810;50.134;8.626;2023-03-26T06:49:27;8.50;99.90
5576;DHT22;2810;50.134;8.626;2023-03-26T06:51:53;8.60;99.90
5576;DHT22;2810;50.134;8.626;2023-03-26T06:54:18;8.60;99.90
5576;DHT22;2810;50.134;8.626;2023-03-26T06:56:43;8.70;99.90
5576;DHT22;2810;50.134;8.626;2023-03-26T06:59:09;8.70;99.90
5576;DHT22;2810;50.134;8.626;2023-03-26T07:01:35;8.70;99.90
5576;DHT22;2810;50.134;8.626;2023-03-26T07:04:00;8.80;99.90
5576;DHT22;2810;50.134;8.626;2023-03-26T07:06:26;8.80;99.90
5576;DHT22;2810;50.134;8.626;2023-03-26T07:08:51;8.80;99.90
5576;DHT22;2810;50.134;8.626;2023-03-26T07:11:17;8.80;99.90
5576;DHT22;2810;50.134;8.626;2023-03-26T07:13:44;8.80;99.90
5576;DHT22;2810;50.134;8.626;2023-03-26T07:16:11;8.80;99.90
5576;DHT22;2810;50.134;8.626;2023-03-26T07:18:37;8.80;99.90
5576;DHT22;2810;50.134;8.626;2023-03-26T07:21:03;8.90;99.90
5576;DHT22;2810;50.134;8.626;2023-03-26T07:23:29;8.80;99.90
5576;DHT22;2810;50.134;8.626;2023-03-26T07:25:54;8.80;99.90
5576;DHT22;2810;50.134;8.626;2023-03-26T07:28:37;8.90;99.90
5576;DHT22;2810;50.134;8.626;2023-03-26T07:31:11;8.90;99.90
5576;DHT22;2810;50.134;8.626;2023-03-26T07:33:45;8.90;99.90
5576;DHT22;2810;50.134;8.626;2023-03-26T07:36:19;8.90;99.90
5576;DHT22;2810;50.134;8.626;2023-03-26T07:38:52;8.80;99.90
5576;DHT22;2810;50.134;8.626;2023-03-26T07:43:59;8.80;99.90
5576;DHT22;2810;50.134;8.626;2023-03-26T07:46:28;8.80;99.90
5576;DHT22;2810;50.134;8.626;2023-03-26T07:48:53;8.70;99.90
5576;DHT22;2810;50.134;8.626;2023-03-26T07:51:22;8.70;99.90
5576;DHT22;2810;50.134;8.626;2023-03-26T07:53:48;8.80;99.90
5576;DHT22;2810;50.134;8.626;2023-03-26T07:56:32;8.80;99.90
5576;DHT22;2810;50.134;8.626;2023-03-26T08:06:33;8.80;99.90
5576;DHT22;2810;50.134;8.626;2023-03-26T08:21:40;8.90;99.90
5576;DHT22;2810;50.134;8.626;2023-03-26T08:24:21;8.90;99.90
5576;DHT22;2810;50.134;8.626;2023-03-26T08:27:14;8.90;99.90
5576;DHT22;2810;50.134;8.626;2023-03-26T08:32:13;8.90;99.90
5576;DHT22;2810;50.134;8.626;2023-03-26T08:34:39;8.90;99.90
5576;DHT22;2810;50.134;8.626;2023-03-26T08:37:05;8.90;99.90
5576;DHT22;2810;50.134;8.626;2023-03-26T08:39:30;8.80;99.90
5576;DHT22;2810;50.134;8.626;2023-03-26T08:47:23;8.80;99.90
5576;DHT22;2810;50.134;8.626;2023-03-26T08:55:31;8.90;99.90
5576;DHT22;2810;50.134;8.626;2023-03-26T09:11:18;8.70;99.90
5576;DHT22;2810;50.134;8.626;2023-03-26T09:13:54;8.80;99.90
5576;DHT22;2810;50.134;8.626;2023-03-26T09:16:38;8.80;99.90
5576;DHT22;2810;50.134;8.626;2023-03-26T09:21:52;8.80;99.90
5576;DHT22;2810;50.134;8.626;2023-03-26T09:24:33;8.80;99.90
5576;DHT22;2810;50.134;8.626;2023-03-26T09:27:12;8.80;99.90
5576;DHT22;2810;50.134;8.626;2023-03-26T09:32:20;8.80;99.90
5576;DHT22;2810;50.134;8.626;2023-03-26T09:37:50;8.80;99.90
5576;DHT22;2810;50.134;8.626;2023-03-26T09:40:18;8.70;99.90
5576;DHT22;2810;50.134;8.626;2023-03-26T09:50:26;8.60;99.90
5576;DHT22;2810;50.134;8.626;2023-03-26T09:55:27;8.70;99.90
5576;DHT22;2810;50.134;8.626;2023-03-26T09:58:06;8.60;99.90
5576;DHT22;2810;50.134;8.626;2023-03-26T10:05:58;8.80;99.90
5576;DHT22;2810;50.134;8.626;2023-03-26T10:08:30;9.00;99.90
5576;DHT22;2810;50.134;8.626;2023-03-26T10:11:00;9.10;99.90
5576;DHT22;2810;50.134;8.626;2023-03-26T10:13:32;9.20;99.90
5576;DHT22;2810;50.134;8.626;2023-03-26T10:21:04;9.00;99.90
5576;DHT22;2810;50.134;8.626;2023-03-26T10:23:37;9.10;99.90
5576;DHT22;2810;50.134;8.626;2023-03-26T10:31:31;9.30;99.90
5576;DHT22;2810;50.134;8.626;2023-03-26T10:36:36;9.70;99.90
5576;DHT22;2810;50.134;8.626;2023-03-26T10:44:24;10.70;99.90
5576;DHT22;2810;50.134;8.626;2023-03-26T10:47:16;10.70;99.90
5576;DHT22;2810;50.134;8.626;2023-03-26T10:49:53;10.80;99.90
5576;DHT22;2810;50.134;8.626;2023-03-26T10:52:33;10.50;99.90
5576;DHT22;2810;50.134;8.626;2023-03-26T10:55:03;10.40;99.90
5576;DHT22;2810;50.134;8.626;2023-03-26T10:57:38;10.30;99.90
5576;DHT22;2810;50.134;8.626;2023-03-26T11:00:12;10.30;99.90
5576;DHT22;2810;50.134;8.626;2023-03-26T11:02:41;10.20;99.90
5576;DHT22;2810;50.134;8.626;2023-03-26T11:05:17;10.20;99.90
5576;DHT22;2810;50.134;8.626;2023-03-26T11:07:48;10.30;99.90
5576;DHT22;2810;50.134;8.626;2023-03-26T11:10:19;10.30;99.90
5576;DHT22;2810;50.134;8.626;2023-03-26T11:13:12;10.30;99.90
5576;DHT22;2810;50.134;8.626;2023-03-26T11:15:48;10.40;99.90
5576;DHT22;2810;50.134;8.626;2023-03-26T11:18:20;10.70;99.90
5576;DHT22;2810;50.134;8.626;2023-03-26T11:20:48;10.70;99.90
5576;DHT22;2810;50.134;8.626;2023-03-26T11:31:24;10.00;99.90
5576;DHT22;2810;50.134;8.626;2023-03-26T11:33:54;9.70;99.90
5576;DHT22;2810;50.134;8.626;2023-03-26T11:36:22;10.00;99.90
5576;DHT22;2810;50.134;8.626;2023-03-26T11:38:49;10.20;99.90
5576;DHT22;2810;50.134;8.626;2023-03-26T11:41:17;10.30;99.90
5576;DHT22;2810;50.134;8.626;2023-03-26T11:43:44;10.60;99.90
5576;DHT22;2810;50.134;8.626;2023-03-26T11:46:13;10.80;99.90
5576;DHT22;2810;50.134;8.626;2023-03-26T11:48:45;10.80;99.90
5576;DHT22;2810;50.134;8.626;2023-03-26T11:51:22;11.00;99.90
5576;DHT22;2810;50.134;8.626;2023-03-26T11:53:48;10.90;99.90
5576;DHT22;2810;50.134;8.626;2023-03-26T11:56:30;10.90;99.90
5576;DHT22;2810;50.134;8.626;2023-03-26T11:59:03;10.90;99.90
5576;DHT22;2810;50.134;8.626;2023-03-26T12:01:48;11.00;99.90
5576;DHT22;2810;50.134;8.626;2023-03-26T12:04:18;11.10;99.90
5576;DHT22;2810;50.134;8.626;2023-03-26T12:06:51;11.30;99.90
5576;DHT22;2810;50.134;8.626;2023-03-26T12:09:17;11.20;99.90
5576;DHT22;2810;50.134;8.626;2023-03-26T12:11:43;11.10;99.90
5576;DHT22;2810;50.134;8.626;2023-03-26T12:14:15;11.20;99.90
5576;DHT22;2810;50.134;8.626;2023-03-26T12:16:55;11.10;99.90
5576;DHT22;2810;50.134;8.626;2023-03-26T12:19:21;11.30;99.90
5576;DHT22;2810;50.134;8.626;2023-03-26T12:21:49;11.50;99.90
5576;DHT22;2810;50.134;8.626;2023-03-26T12:24:28;11.50;99.90
5576;DHT22;2810;50.134;8.626;2023-03-26T12:26:55;11.70;99.90
5576;DHT22;2810;50.134;8.626;2023-03-26T12:29:21;12.00;99.90
5576;DHT22;2810;50.134;8.626;2023-03-26T12:32:04;12.30;99.90
5576;DHT22;2810;50.134;8.626;2023-03-26T12:34:33;12.40;99.90
5576;DHT22;2810;50.134;8.626;2023-03-26T12:36:59;12.30;99.90
5576;DHT22;2810;50.134;8.626;2023-03-26T12:42:02;12.20;99.90
5576;DHT22;2810;50.134;8.626;2023-03-26T12:44:33;12.60;99.90
5576;DHT22;2810;50.134;8.626;2023-03-26T12:47:09;12.60;99.90
5576;DHT22;2810;50.134;8.626;2023-03-26T12:49:38;12.70;99.90
5576;DHT22;2810;50.134;8.626;2023-03-26T12:52:08;12.60;99.90
5576;DHT22;2810;50.134;8.626;2023-03-26T12:54:50;12.60;99.90
5576;DHT22;2810;50.134;8.626;2023-03-26T12:57:19;12.80;99.90
5576;DHT22;2810;50.134;8.626;2023-03-26T13:00:08;13.50;99.90
5576;DHT22;2810;50.134;8.626;2023-03-26T13:08:45;14.30;99.90
5576;DHT22;2810;50.134;8.626;2023-03-26T13:16:54;12.90;99.90
5576;DHT22;2810;50.134;8.626;2023-03-26T13:19:32;12.50;99.90
5576;DHT22;2810;50.134;8.626;2023-03-26T13:25:01;13.10;99.90
5576;DHT22;2810;50.134;8.626;2023-03-26T13:30:21;14.10;99.90
5576;DHT22;2810;50.134;8.626;2023-03-26T13:32:58;14.50;99.90
5576;DHT22;2810;50.134;8.626;2023-03-26T13:38:30;14.50;99.90
5576;DHT22;2810;50.134;8.626;2023-03-26T13:41:08;14.60;99.90
5576;DHT22;2810;50.134;8.626;2023-03-26T13:48:53;15.50;99.90
5576;DHT22;2810;50.134;8.626;2023-03-26T13:51:29;15.60;99.90
5576;DHT22;2810;50.134;8.626;2023-03-26T13:53:58;15.00;99.90
5576;DHT22;2810;50.134;8.626;2023-03-26T13:56:27;14.20;99.90
5576;DHT22;2810;50.134;8.626;2023-03-26T13:58:58;13.40;99.90
5576;DHT22;2810;50.134;8.626;2023-03-26T14:01:29;13.10;99.90
5576;DHT22;2810;50.134;8.626;2023-03-26T14:06:44;12.60;99.90
5576;DHT22;2810;50.134;8.626;2023-03-26T14:09:16;12.70;99.90
5576;DHT22;2810;50.134;8.626;2023-03-26T14:11:58;13.20;99.90
5576;DHT22;2810;50.134;8.626;2023-03-26T14:14:45;13.50;99.90
5576;DHT22;2810;50.134;8.626;2023-03-26T14:25:38;13.80;99.90
5576;DHT22;2810;50.134;8.626;2023-03-26T14:28:00;13.50;99.90
5576;DHT22;2810;50.134;8.626;2023-03-26T14:33:00;13.50;99.90
5576;DHT22;2810;50.134;8.626;2023-03-26T14:35:32;13.50;99.90
5576;DHT22;2810;50.134;8.626;2023-03-26T14:53:37;13.10;99.90
5576;DHT22;2810;50.134;8.626;2023-03-26T14:58:45;13.20;99.90
5576;DHT22;2810;50.134;8.626;2023-03-26T15:01:22;13.00;99.90
5576;DHT22;2810;50.134;8.626;2023-03-26T15:09:16;12.70;99.90
5576;DHT22;2810;50.134;8.626;2023-03-26T15:17:44;12.80;99.90
5576;DHT22;2810;50.134;8.626;2023-03-26T15:25:31;12.80;99.90
5576;DHT22;2810;50.134;8.626;2023-03-26T15:33:40;12.90;99.90
5576;DHT22;2810;50.134;8.626;2023-03-26T15:41:29;12.70;99.90
5576;DHT22;2810;50.134;8.626;2023-03-26T15:46:49;12.50;99.90
5576;DHT22;2810;50.134;8.626;2023-03-26T15:49:24;12.50;99.90
5576;DHT22;2810;50.134;8.626;2023-03-26T15:51:54;12.40;99.90
5576;DHT22;2810;50.134;8.626;2023-03-26T15:59:29;10.50;99.90
5576;DHT22;2810;50.134;8.626;2023-03-26T16:05:01;9.30;99.90
5576;DHT22;2810;50.134;8.626;2023-03-26T16:10:15;8.70;99.90
5576;DHT22;2810;50.134;8.626;2023-03-26T16:15:29;8.30;99.90
5576;DHT22;2810;50.134;8.626;2023-03-26T16:20:53;8.20;99.90
5576;DHT22;2810;50.134;8.626;2023-03-26T16:25:58;8.20;99.90
5576;DHT22;2810;50.134;8.626;2023-03-26T16:28:58;8.20;99.90
5576;DHT22;2810;50.134;8.626;2023-03-26T16:31:26;8.30;99.90
5576;DHT22;2810;50.134;8.626;2023-03-26T16:36:32;8.50;99.90
5576;DHT22;2810;50.134;8.626;2023-03-26T16:39:11;8.60;99.90
5576;DHT22;2810;50.134;8.626;2023-03-26T16:44:18;8.70;99.90
5576;DHT22;2810;50.134;8.626;2023-03-26T16:46:59;8.70;99.90
5576;DHT22;2810;50.134;8.626;2023-03-26T16:49:40;8.70;99.90
5576;DHT22;2810;50.134;8.626;2023-03-26T16:52:14;8.80;99.90
5576;DHT22;2810;50.134;8.626;2023-03-26T16:54:47;8.80;99.90
5576;DHT22;2810;50.134;8.626;2023-03-26T17:23:08;8.80;99.90
5576;DHT22;2810;50.134;8.626;2023-03-26T17:25:39;8.80;99.90
5576;DHT22;2810;50.134;8.626;2023-03-26T17:36:12;8.80;99.90
5576;DHT22;2810;50.134;8.626;2023-03-26T17:41:05;9.10;99.90
5576;DHT22;2810;50.134;8.626;2023-03-26T17:43:32;9.10;99.90
5576;DHT22;2810;50.134;8.626;2023-03-26T17:45:59;9.10;99.90
5576;DHT22;2810;50.134;8.626;2023-03-26T17:48:25;9.10;99.90
5576;DHT22;2810;50.134;8.626;2023-03-26T17:50:58;9.10;99.90
5576;DHT22;2810;50.134;8.626;2023-03-26T17:53:26;9.10;99.90
5576;DHT22;2810;50.134;8.626;2023-03-26T17:55:52;9.10;99.90
5576;DHT22;2810;50.134;8.626;2023-03-26T17:58:21;9.10;99.90
5576;DHT22;2810;50.134;8.626;2023-03-26T18:03:49;9.10;99.90
5576;DHT22;2810;50.134;8.626;2023-03-26T18:06:26;9.20;99.90
5576;DHT22;2810;50.134;8.626;2023-03-26T18:08:57;9.40;99.90
5576;DHT22;2810;50.134;8.626;2023-03-26T18:14:16;9.20;99.90
5576;DHT22;2810;50.134;8.626;2023-03-26T18:16:46;9.20;99.90
5576;DHT22;2810;50.134;8.626;2023-03-26T18:19:14;9.20;99.90
5576;DHT22;2810;50.134;8.626;2023-03-26T18:21:47;8.90;99.90
5576;DHT22;2810;50.134;8.626;2023-03-26T18:24:31;9.20;99.90
5576;DHT22;2810;50.134;8.626;2023-03-26T18:26:57;9.20;99.90
5576;DHT22;2810;50.134;8.626;2023-03-26T18:29:26;9.10;99.90
5576;DHT22;2810;50.134;8.626;2023-03-26T18:31:56;8.90;99.90
5576;DHT22;2810;50.134;8.626;2023-03-26T18:34:25;8.90;99.90
5576;DHT22;2810;50.134;8.626;2023-03-26T18:39:33;8.80;99.90
5576;DHT22;2810;50.134;8.626;2023-03-26T18:41:58;8.90;99.90
5576;DHT22;2810;50.134;8.626;2023-03-26T18:44:24;8.80;99.90
5576;DHT22;2810;50.134;8.626;2023-03-26T18:46:51;8.80;99.90
5576;DHT22;2810;50.134;8.626;2023-03-26T18:49:18;8.80;99.90
5576;DHT22;2810;50.134;8.626;2023-03-26T18:51:44;8.80;99.90
5576;DHT22;2810;50.134;8.626;2023-03-26T18:54:12;8.70;99.90
5576;DHT22;2810;50.134;8.626;2023-03-26T18:56:41;8.70;99.90
5576;DHT22;2810;50.134;8.626;2023-03-26T18:59:26;8.60;99.90
5576;DHT22;2810;50.134;8.626;2023-03-26T19:01:54;8.60;99.90
5576;DHT22;2810;50.134;8.626;2023-03-26T19:04:21;9.20;99.90
5576;DHT22;2810;50.134;8.626;2023-03-26T19:06:47;8.40;99.90
5576;DHT22;2810;50.134;8.626;2023-03-26T19:09:17;8.40;99.90
5576;DHT22;2810;50.134;8.626;2023-03-26T19:11:44;8.40;99.90
5576;DHT22;2810;50.134;8.626;2023-03-26T19:14:13;8.40;99.90
5576;DHT22;2810;50.134;8.626;2023-03-26T19:16:39;8.40;99.90
5576;DHT22;2810;50.134;8.626;2023-03-26T19:19:08;8.40;99.90
5576;DHT22;2810;50.134;8.626;2023-03-26T19:21:37;8.40;99.90
5576;DHT22;2810;50.134;8.626;2023-03-26T19:24:02;8.30;99.90
5576;DHT22;2810;50.134;8.626;2023-03-26T19:26:28;8.40;99.90
5576;DHT22;2810;50.134;8.626;2023-03-26T19:28:54;8.40;99.90
5576;DHT22;2810;50.134;8.626;2023-03-26T19:31:24;8.40;99.90
5576;DHT22;2810;50.134;8.626;2023-03-26T19:33:56;8.40;99.90
5576;DHT22;2810;50.134;8.626;2023-03-26T19:36:23;8.30;99.90
5576;DHT22;2810;50.134;8.626;2023-03-26T19:38:49;8.40;99.90
5576;DHT22;2810;50.134;8.626;2023-03-26T19:41:22;8.40;99.90
5576;DHT22;2810;50.134;8.626;2023-03-26T19:43:52;8.40;99.90
5576;DHT22;2810;50.134;8.626;2023-03-26T19:46:20;8.30;99.90
5576;DHT22;2810;50.134;8.626;2023-03-26T19:48:46;8.40;99.90
5576;DHT22;2810;50.134;8.626;2023-03-26T19:51:18;8.40;99.90
5576;DHT22;2810;50.134;8.626;2023-03-26T19:53:45;8.40;99.90
5576;DHT22;2810;50.134;8.626;2023-03-26T19:56:12;8.40;99.90
5576;DHT22;2810;50.134;8.626;2023-03-26T19:58:39;8.40;99.90
5576;DHT22;2810;50.134;8.626;2023-03-26T20:01:05;8.40;99.90
5576;DHT22;2810;50.134;8.626;2023-03-26T20:03:41;8.40;99.90
5576;DHT22;2810;50.134;8.626;2023-03-26T20:06:17;8.40;99.90
5576;DHT22;2810;50.134;8.626;2023-03-26T20:08:42;8.40;99.90
5576;DHT22;2810;50.134;8.626;2023-03-26T20:11:11;8.30;99.90
5576;DHT22;2810;50.134;8.626;2023-03-26T20:13:38;8.30;99.90
5576;DHT22;2810;50.134;8.626;2023-03-26T20:16:07;8.30;99.90
5576;DHT22;2810;50.134;8.626;2023-03-26T20:18:34;8.30;99.90
5576;DHT22;2810;50.134;8.626;2023-03-26T20:21:01;8.30;99.90
5576;DHT22;2810;50.134;8.626;2023-03-26T20:23:26;8.30;99.90
5576;DHT22;2810;50.134;8.626;2023-03-26T20:25:52;8.30;99.90
5576;DHT22;2810;50.134;8.626;2023-03-26T20:28:19;8.30;99.90
5576;DHT22;2810;50.134;8.626;2023-03-26T20:30:45;8.30;99.90
5576;DHT22;2810;50.134;8.626;2023-03-26T20:33:15;8.20;99.90
5576;DHT22;2810;50.134;8.626;2023-03-26T20:35:42;8.20;99.90
5576;DHT22;2810;50.134;8.626;2023-03-26T20:38:07;8.30;99.90
5576;DHT22;2810;50.134;8.626;2023-03-26T20:40:33;8.20;99.90
5576;DHT22;2810;50.134;8.626;2023-03-26T20:42:59;8.20;99.90
5576;DHT22;2810;50.134;8.626;2023-03-26T20:45:25;8.50;99.90
5576;DHT22;2810;50.134;8.626;2023-03-26T20:47:50;8.30;99.90
5576;DHT22;2810;50.134;8.626;2023-03-26T20:50:18;8.20;99.90
5576;DHT22;2810;50.134;8.626;2023-03-26T20:52:47;8.20;99.90
5576;DHT22;2810;50.134;8.626;2023-03-26T20:55:14;8.10;99.90
5576;DHT22;2810;50.134;8.626;2023-03-26T20:57:40;8.10;99.90
5576;DHT22;2810;50.134;8.626;2023-03-26T21:00:07;8.00;99.90